Aviation Digital Data Service (ADDS)

Output produced by METARs form (1915 UTC 22 July 2014)
found at http://www.aviationweather.gov/adds/metars/
 
KTHV 221853Z AUTO VRB03KT 10SM FEW035 FEW050 OVC060 29/21 A3013 RMK AO2 SLP201 T02890211
KTHV 221753Z AUTO 23008KT 190V260 10SM BKN055 28/21 A3014 RMK AO2 SLP204 T02780206 10289 20222 58012
KTHV 221653Z AUTO 20008KT 10SM FEW025 BKN055 27/21 A3016 RMK AO2 SLP212 T02720211
KTHV 221553Z AUTO 20007KT 10SM OVC041 26/21 A3017 RMK AO2 SLP214 T02610211
KTHV 221500Z AUTO 21008KT 10SM FEW024 SCT030 OVC038 26/21 A3018 RMK AO2 T02560211
KTHV 221453Z AUTO 23005KT 10SM BKN026 BKN033 BKN041 26/21 A3018 RMK AO2 SLP216 T02560211 58008
KTHV 221418Z AUTO 25003KT 10SM SCT020 BKN028 BKN034 26/21 A3019 RMK AO2 T02560211
KTHV 221401Z AUTO 10SM FEW020 SCT028 26/21 A3018 RMK AO2 T02560211
KTHV 221353Z AUTO 00000KT 10SM FEW015 BKN028 26/22 A3019 RMK AO2 SLP220 T02560217
KTHV 221253Z AUTO 21005KT 9SM OVC026 23/21 A3020 RMK AO2 SLP224 T02280206
KTHV 221153Z AUTO 20003KT 10SM FEW007 OVC024 22/20 A3020 RMK AO2 SLP225 T02220200 10222 20172 51007
KTHV 221151Z AUTO 00000KT 10SM FEW007 OVC023 22/20 A3020 RMK AO2
KTHV 221053Z AUTO 00000KT 7SM OVC019 21/19 A3019 RMK AO2 SLP221 T02060189
KTHV 220953Z AUTO 00000KT 8SM OVC019 20/19 A3018 RMK AO2 SLP218 T02000189
KTHV 220906Z AUTO 00000KT 10SM BKN015 OVC050 19/18 A3017 RMK AO2 T01890178
KTHV 220853Z AUTO 00000KT 10SM FEW015 OVC050 19/18 A3017 RMK AO2 SLP216 T01890178 55001
KTHV 220753Z AUTO 00000KT 6SM BR BKN050 18/17 A3017 RMK AO2 SLP215 T01780172
KTHV 220653Z AUTO 00000KT 10SM FEW025 18/17 A3017 RMK AO2 SLP215 T01780167 TSNO
KTHV 220553Z AUTO 00000KT 10SM CLR 19/17 A3017 RMK AO2 SLP217 T01890172 10250 20189 58000
KTHV 220453Z AUTO 21003KT 10SM CLR 21/18 A3018 RMK AO2 SLP218 T02110178 402670183
KTHV 220353Z AUTO 20005KT 10SM CLR 22/18 A3018 RMK AO2 SLP217 T02220183
KTHV 220253Z AUTO 19003KT 10SM CLR 22/18 A3018 RMK AO2 SLP217 T02220183 53001
KTHV 220153Z AUTO 00000KT 10SM CLR 21/18 A3017 RMK AO2 SLP217 T02110183
KTHV 220053Z AUTO 00000KT 10SM CLR 23/18 A3016 RMK AO2 SLP213 T02280183
KTHV 212353Z AUTO 00000KT 10SM BKN060 25/19 A3017 RMK AO2 SLP215 T02500189 10267 20250 53001
KTHV 212253Z AUTO 15004KT 10SM CLR 26/19 A3016 RMK AO2 SLP211 T02610189
KTHV 212153Z AUTO 16005KT 10SM SCT031 BKN110 26/19 A3016 RMK AO2 SLP212 T02610194
KTHV 212053Z AUTO VRB03KT 10SM FEW040 SCT047 OVC110 26/19 A3017 RMK AO2 SLP214 T02610194 56008
KTHV 211953Z AUTO 16004KT 10SM BKN047 BKN055 OVC070 26/19 A3017 RMK AO2 SLP214 T02610189
KTHV 211853Z AUTO 00000KT 10SM OVC039 25/19 A3018 RMK AO2 SLP217 T02500189
KTHV 211753Z AUTO 00000KT 10SM OVC041 26/19 A3019 RMK AO2 SLP222 T02560189 10256 20211 58005
KTHV 211653Z AUTO 23003KT 10SM OVC049 24/19 A3020 RMK AO2 SLP224 T02440189
KTHV 211553Z AUTO 00000KT 10SM FEW023 SCT049 OVC060 24/18 A3020 RMK AO2 SLP225 T02440183
KTHV 211545Z AUTO 00000KT 10SM SCT023 BKN055 OVC065 24/19 A3020 RMK AO2 T02440189
KTHV 211503Z AUTO VRB03KT 10SM BKN022 OVC055 24/18 A3020 RMK AO2 T02390183
KTHV 211453Z AUTO VRB03KT 10SM SCT021 OVC060 24/19 A3020 RMK AO2 SLP227 T02440189 51005
KTHV 211402Z AUTO 13003KT 10SM SCT021 BKN060 OVC070 23/19 A3020 RMK AO2 T02280189
KTHV 211353Z AUTO 00000KT 10SM SCT015 BKN021 OVC065 23/19 A3020 RMK AO2 SLP227 T02280189
KTHV 211309Z AUTO VRB03KT 10SM SCT012 OVC016 22/19 A3021 RMK AO2 T02220189
KTHV 211253Z AUTO VRB03KT 10SM BKN012 BKN043 OVC065 22/19 A3021 RMK AO2 SLP229 T02220194
KTHV 211153Z AUTO 10004KT 4SM BR FEW011 OVC070 21/19 A3019 RMK AO2 SLP221 T02110194 10211 20183 51014
KTHV 211053Z AUTO 09003KT 4SM BR BKN011 OVC060 21/19 A3018 RMK AO2 CIG 008V014 SLP217 T02060194
KTHV 211023Z AUTO 00000KT 6SM BR BKN011 OVC046 21/19 A3017 RMK AO2 T02060194
KTHV 211014Z AUTO 00000KT 6SM BR BKN009 BKN013 OVC060 20/19 A3017 RMK AO2 CIG 008V011 T02000189
KTHV 211007Z AUTO 00000KT 7SM SCT011 BKN046 OVC060 20/19 A3017 RMK AO2 T02000189
KTHV 210953Z AUTO 11003KT 7SM BKN011 BKN047 OVC060 20/19 A3016 RMK AO2 SLP213 T02000189
KTHV 210853Z AUTO 00000KT 6SM BR BKN010 BKN046 OVC060 19/18 A3015 RMK AO2 SLP208 T01890183 51004
KTHV 210848Z AUTO 00000KT 6SM BR BKN010 OVC060 19/18 A3014 RMK AO2
KTHV 210753Z AUTO 00000KT 7SM FEW015 OVC065 19/18 A3014 RMK AO2 SLP205 T01890183